x

9410840 - Santa Monica Pier (icac1) Weather Station

8:54 - Sat 4th Jul 2015 All times are PDT. -7 hours from GMT.

  • Wind
    10mph, 13mph gusts
  • Sea Temp 67°f
  • Aire Temp 62°f
  • Sea Pressure 1012.9mb
  • 9410840 - Santa Monica Pier
  • 9410840 - Santa Monica Pier

More Historic Weather Station data

Upgrade to MSW Pro to gain access to the past 30 days of data for over 8000 Wavebouys and Weather Stations around the globe.

Join Pro

Comparision Forecast

View Surf forecast
   
sáb 07/04 8:54 10 13 mph 1012.9mb 67f 62f
8:48 10 13 mph 1012.8mb 68f 62f
8:42 10 13 mph 1012.7mb 68f 62f
8:36 13 14 mph 1012.6mb 68f 62f
8:30 11 14 mph 1012.7mb 68f 62f
8:24 11 14 mph 1012.7mb 68f 62f
8:18 13 14 mph 1012.5mb 68f 62f
8:12 14 15 mph 1012.5mb 68f 62f
8:06 13 16 mph 1012.4mb 68f 63f
8:00 13 15 mph 1012.4mb 68f 63f
7:54 15 17 mph 1012.4mb 68f 62f
7:48 14 15 mph 1012.3mb 68f 63f
7:42 14 16 mph 1012.2mb 68f 63f
7:36 14 16 mph 1012.2mb 68f 63f
7:30 14 16 mph 1012.1mb 69f 63f
7:24 13 14 mph 1012.1mb 69f 63f
7:18 11 14 mph 1012mb 69f 63f
7:12 13 14 mph 1012mb 69f 63f
7:06 10 13 mph 1011.9mb 69f 63f
7:00 11 13 mph 1011.8mb 69f 63f
6:54 13 14 mph 1011.7mb 69f 63f
6:48 13 14 mph 1011.7mb 69f 63f
6:42 14 15 mph 1011.6mb 69f 63f
6:36 13 14 mph 1011.5mb 69f 64f
6:30 13 14 mph 1011.5mb 69f 64f
6:24 11 15 mph 1011.5mb 69f 64f
6:18 13 14 mph 1011.6mb 69f 64f
6:12 13 14 mph 1011.5mb 69f 64f
6:06 11 13 mph 1011.5mb 69f 64f
6:00 11 14 mph 1011.4mb 69f 64f
5:54 11 13 mph 1011.4mb 69f 64f
5:48 11 14 mph 1011.4mb 69f 64f
5:42 13 14 mph 1011.4mb 69f 64f
5:36 14 15 mph 1011.4mb 69f 64f
5:30 13 15 mph 1011.5mb 69f 64f
5:24 14 15 mph 1011.5mb 68f 64f
5:18 14 16 mph 1011.6mb 68f 64f
5:12 13 15 mph 1011.6mb 68f 65f
5:06 14 15 mph 1011.6mb 68f 64f
5:00 13 14 mph 1011.7mb 68f 64f
4:54 11 13 mph 1011.7mb 68f 64f
4:48 10 13 mph 1011.7mb 68f 65f
4:42 10 11 mph 1011.8mb 68f 65f
4:36 9 10 mph 1011.8mb 68f 65f
4:30 7 8 mph 1011.8mb 68f 65f
4:24 7 8 mph 1011.8mb 68f 65f
4:18 6 8 mph 1011.9mb 68f 65f
4:12 6 7 mph 1011.9mb 68f 65f
4:06 7 8 mph 1012mb 68f 65f
4:00 7 8 mph 1012.1mb 67f 65f
3:54 7 8 mph 1012.2mb 67f 65f
3:48 8 9 mph 1012.2mb 67f 65f
3:42 7 9 mph 1012.3mb 67f 65f
3:36 7 8 mph 1012.4mb 67f 65f
3:30 6 7 mph 1012.4mb 67f 65f
3:24 6 7 mph 1012.5mb 67f 65f
3:18 7 8 mph 1012.5mb 67f 65f
3:12 7 8 mph 1012.5mb 67f 65f
3:06 7 8 mph 1012.6mb 67f 65f
3:00 8 9 mph 1012.6mb 68f 65f
2:54 8 10 mph 1012.7mb 68f 65f
2:48 7
mph
1012.8mb 68f 65f
2:42 6 7 mph 1012.8mb 68f 65f
2:36 7
mph
1012.8mb 68f 65f
2:30 7 9 mph 1012.9mb 68f 65f
2:24 8 9 mph 1012.9mb 68f 65f
2:18 8 9 mph 1013mb 68f 65f
2:12 8 9 mph 1012.9mb 67f 65f
2:06 7 8 mph 1013mb 67f 65f
2:00 7 8 mph 1012.9mb 67f 65f
1:54 8 9 mph 1012.9mb 67f 65f
1:48 8
mph
1013mb 67f 65f
1:42 6 7 mph 1013mb 67f 65f
1:36 6 7 mph 1013mb 67f 65f
1:30 7 8 mph 1013.1mb 67f 65f
1:24 7 9 mph 1013.2mb 67f 64f
1:18 8 9 mph 1013.2mb 68f 64f
1:12 8 9 mph 1013.2mb 68f 64f
1:06 8 9 mph 1013.2mb 68f 64f
1:00 7 8 mph 1013.2mb 68f 64f
12:54 7 8 mph 1013.2mb 68f 65f
12:48 7 8 mph 1013.2mb 68f 64f
12:42 8 9 mph 1013.2mb 68f 64f
12:36 8 9 mph 1013.2mb 68f 64f
12:30 8 9 mph 1013.3mb 68f 64f
12:24 8 9 mph 1013.4mb 68f 64f
12:18 7 8 mph 1013.4mb 68f 64f
12:12 8
mph
1013.4mb 68f 64f
12:06 7 8 mph 1013.3mb 68f 64f
12:00 7
mph
1013.3mb 68f 64f
11:54 7
mph
1013.2mb 68f 64f
11:48 6 7 mph 1013.2mb 68f 64f
11:42 7 8 mph 1013.2mb 68f 64f
11:36 7 8 mph 1013.1mb 68f 64f
11:30 7 8 mph 1013.1mb 68f 64f
11:24 7
mph
1013.1mb 67f 64f
11:18 6 7 mph 1013.1mb 67f 64f
11:12 6 7 mph 1013.1mb 67f 64f
11:06 6 7 mph 1013.1mb 67f 64f
11:00 6 7 mph 1013mb 67f 65f
10:54 6 7 mph 1013mb 67f 64f
10:48 6
mph
1013mb 67f 65f
10:42 6 7 mph 1013mb 67f 64f
10:36 5 6 mph 1013mb 67f 64f
10:30 5 6 mph 1013mb 67f 64f
10:24 5 6 mph 1012.9mb 67f 64f
10:18 5 6 mph 1012.9mb 67f 64f
10:12 6
mph
1012.9mb 67f 64f
10:06 6
mph
1012.8mb 67f 64f
10:00 6
mph
1012.8mb 67f 64f
9:54 6 7 mph 1012.9mb 67f 64f
9:48 6 7 mph 1012.9mb 67f 64f
9:42 6
mph
1012.9mb 67f 64f
9:36 6 7 mph 1012.9mb 67f 64f
9:30 6
mph
1012.9mb 67f 64f
9:24 5
mph
1012.9mb 67f 64f
9:18 5
mph
1012.9mb 67f 64f
9:12 3 5 mph 1012.8mb 67f 64f
9:06 3 5 mph 1012.8mb 67f 64f
9:00 3 5 mph 1012.8mb 66f 64f
8:54 2 5 mph 1012.8mb 65f 64f
8:48 2 5 mph 1012.8mb 63f 64f
8:42 3 5 mph 1012.7mb 63f 64f
8:36 2 3 mph 1012.6mb 63f 64f
8:30 3
mph
1012.6mb 63f 64f
8:24 2 3 mph 1012.6mb 63f 64f
8:18 2 3 mph 1012.6mb 64f 64f
8:12 2 3 mph 1012.5mb 63f 64f
8:06 2 3 mph 1012.4mb 63f 64f
8:00 2 3 mph 1012.4mb 63f 64f
7:54 3 5 mph 1012.3mb 63f 64f
7:48 3 5 mph 1012.3mb 63f 64f
7:42 2 3 mph 1012.2mb 63f 64f
7:36 2 3 mph 1012.3mb 63f 64f
7:30 3
mph
1012.3mb 63f 64f
7:24 3
mph
1012.2mb 64f 64f
7:18 2
mph
1012.2mb 64f 64f
7:12  -  3 mph 1012.2mb 64f 64f
7:06 2 3 mph 1012.2mb 64f 63f
7:00 1 3 mph 1012.1mb 65f 63f
6:54 2 3 mph 1012.1mb 64f 63f
6:48  -  2 mph 1012.1mb 65f 63f
6:42 2 3 mph 1012.1mb 65f 63f
6:36 1 2 mph 1012.1mb 65f 63f
6:30 1 2 mph 1012.1mb 66f 63f
6:24 2 5 mph 1012.1mb 66f 63f
6:18 3 5 mph 1012.2mb 66f 63f
6:12 3 6 mph 1012.2mb 66f 63f
6:06 5 6 mph 1012.1mb 66f 63f
6:00 3 6 mph 1012.1mb 66f 63f
5:54 3 5 mph 1012.1mb 67f 63f
5:48 3
mph
1012.1mb 67f 63f
5:42 3 5 mph 1012.1mb 67f 63f
5:36 2 3 mph 1012.1mb 67f 62f
5:30 2 5 mph 1012mb 67f 62f
5:24 3 5 mph 1011.9mb 67f 62f
5:18 3 7 mph 1011.9mb 67f 62f
5:12 6 7 mph 1011.9mb 67f 62f
5:06 5 6 mph 1011.8mb 68f 62f
5:00 3 9 mph 1011.8mb 68f 62f
4:54 7 8 mph 1011.8mb 68f 62f
4:48 6 7 mph 1011.8mb 68f 62f
4:42 6 7 mph 1011.7mb 68f 62f
4:36 7 8 mph 1011.8mb 68f 62f
4:30 6 7 mph 1011.8mb 68f 62f
4:24 6 7 mph 1011.7mb 68f 62f
4:18 5 7 mph 1011.7mb 68f 62f
4:12 6 8 mph 1011.7mb 68f 62f
4:06 6 8 mph 1011.7mb 68f 62f
4:00 6 7 mph 1011.7mb 68f 62f
3:54 3 5 mph 1011.7mb 68f 62f
3:48 5 8 mph 1011.8mb 68f 62f
3:42 5 7 mph 1011.8mb 68f 62f
3:36 6 8 mph 1011.7mb 68f 62f
3:30 6 8 mph 1011.7mb 68f 62f
3:24 6 7 mph 1011.8mb 68f 62f
3:18 7 8 mph 1011.8mb 68f 62f
3:12 6 8 mph 1011.9mb 68f 62f
3:06 6 8 mph 1011.9mb 68f 62f
3:00 7 8 mph 1011.9mb 68f 62f
2:54 7 9 mph 1011.8mb 68f 62f
2:48 8 9 mph 1011.8mb 68f 62f
2:42 8 10 mph 1011.8mb 68f 62f
2:36 7 9 mph 1011.9mb 68f 62f
2:30 9 10 mph 1011.9mb 68f 62f
2:24 9 10 mph 1012mb 68f 62f
2:18 8 10 mph 1012mb 68f 62f
2:12 8 10 mph 1012mb 68f 62f
2:06 8 10 mph 1012.1mb 68f 62f
2:00 9 10 mph 1012.1mb 68f 62f
1:54 8 10 mph 1012mb 68f 63f
1:48 9 11 mph 1012mb 68f 63f
1:42 10 13 mph 1012.1mb 68f 62f
1:36 11 13 mph 1012mb 68f 62f
1:30 10 13 mph 1012mb 68f 62f
1:24 10 14 mph 1012mb 68f 63f
1:18 11 13 mph 1012mb 68f 62f
1:12 9 11 mph 1012mb 68f 63f
1:06 11 13 mph 1012mb 68f 63f
1:00 7 9 mph 1012mb 68f 62f
12:54 7 8 mph 1012mb 68f 62f
12:48 6 8 mph 1012mb 68f 62f
12:42 6 8 mph 1012.2mb 68f 62f
12:36 7 11 mph 1012.2mb 68f 62f
12:30 7 9 mph 1012.3mb 68f 62f
12:24 7 9 mph 1012.3mb 67f 62f
12:18 6 7 mph 1012.3mb 67f 62f
12:12 7 9 mph 1012.3mb 67f 62f
12:06 7 8 mph 1012.3mb 67f 62f
12:00 7 8 mph 1012.4mb 67f 62f
vie 07/03 11:54 6 8 mph 1012.4mb 67f 62f
11:48 8 9 mph 1012.4mb 67f 62f
11:42 7 9 mph 1012.5mb 67f 62f
11:36 7 10 mph 1012.5mb 67f 61f
11:30 7 9 mph 1012.6mb - 62f
11:24 7 9 mph 1012.6mb - 62f
11:18 8 9 mph 1012.6mb 66f 62f
11:12 7 9 mph 1012.5mb 66f 62f
11:06 7 9 mph 1012.4mb 66f 62f
11:00 7 9 mph 1012.4mb 65f 62f
10:54 8 9 mph 1012.4mb 65f 62f
10:48 9 13 mph 1012.4mb 64f 62f
10:42 9 10 mph 1012.3mb 64f 62f
10:36 7 11 mph 1012.2mb 65f 63f
10:30 10 14 mph 1012.1mb 65f 63f
10:24 11 13 mph 1012.1mb 65f 64f
10:18 11 15 mph 1012mb 65f 63f
10:12 10 14 mph 1011.9mb 65f 63f
10:06 11 13 mph 1011.9mb 65f 63f
10:00 11 14 mph 1011.8mb 64f 63f
9:54 10 14 mph 1011.7mb 64f 64f
9:48 10 13 mph 1011.6mb 64f 63f
9:42 10 11 mph 1011.6mb 64f 63f
9:36 8 9 mph 1011.5mb 64f 63f
9:30 8 9 mph 1011.4mb 64f 63f
9:24 7 10 mph 1011.3mb 64f 63f
9:18 6 8 mph 1011.3mb 64f 63f
9:12 6 7 mph 1011.2mb 64f 64f
9:06 7
mph
1011.1mb 64f 63f
9:00 5 6 mph 1011mb 64f 64f
8:54 6
mph
1011mb 64f 64f
8:48 5 6 mph 1010.9mb 64f 64f
8:42 6 8 mph 1010.8mb 64f 64f
8:36 7 10 mph 1010.7mb 64f 64f
8:30 9 10 mph 1010.7mb 64f 64f
8:24 9 10 mph 1010.7mb 64f 64f
8:18 10 11 mph 1010.6mb 64f 64f
8:12 11 14 mph 1010.6mb 64f 63f
8:06 11 14 mph 1010.6mb 64f 64f
8:00 13 14 mph 1010.6mb 64f 64f
7:54 13
mph
1010.6mb 64f 63f
7:48 13 15 mph 1010.6mb 64f 63f
7:42 13 15 mph 1010.5mb 64f 63f
7:36 13 15 mph 1010.5mb 65f 63f
7:30 13 15 mph 1010.5mb 65f 63f
7:24 14 15 mph 1010.5mb 65f 63f
7:18 14 16 mph 1010.5mb 65f 63f
7:12 14 17 mph 1010.7mb 65f 63f
7:06 15 18 mph 1010.8mb 65f 63f
7:00 16 18 mph 1010.8mb 65f 63f
6:54 14 17 mph 1010.8mb 66f 63f
6:48 15 16 mph 1010.7mb 66f 63f
6:42 15 16 mph 1010.7mb 67f 63f
6:36 13 16 mph 1010.7mb 67f 64f
6:30 15 17 mph 1010.7mb 68f 63f
6:24 15 18 mph 1010.8mb 68f 63f
6:18 16 18 mph 1010.8mb 69f 63f
6:12 16 20 mph 1010.9mb 69f 64f
6:06 15 17 mph 1010.8mb 69f 64f
6:00 15 17 mph 1010.9mb 69f 64f
5:54 15 18 mph 1010.9mb 69f 64f
5:48 15 20 mph 1010.9mb 69f 64f
5:42 16 20 mph 1010.9mb 69f 64f
5:36 16 17 mph 1011mb 69f 64f
5:30 15 17 mph 1011.1mb 69f 64f
5:24 17 18 mph 1011.1mb 69f 63f
5:18 15 17 mph 1011.2mb 69f 64f
5:12 16 17 mph 1011.3mb 69f 63f
5:06 16 17 mph 1011.3mb 69f 63f
5:00 16 18 mph 1011.4mb 69f 63f
4:54 15 17 mph 1011.5mb 69f 64f
4:48 15 17 mph 1011.7mb 69f 64f
4:42 15 17 mph 1011.7mb 69f 64f
4:36 16 17 mph 1011.7mb 69f 63f
4:30 16 17 mph 1011.8mb 69f 63f
4:24 15 17 mph 1011.8mb 69f 63f
4:18 15 16 mph 1011.9mb 69f 63f
4:12 15 16 mph 1012mb 69f 64f
4:06 14 16 mph 1012mb 69f 64f
4:00 13 15 mph 1012.1mb 69f 64f
3:54 13 14 mph 1012.1mb 69f 64f
3:48 11 14 mph 1012.2mb 69f 64f
3:42 13 14 mph 1012.2mb 69f 64f
3:36 11 14 mph 1012.3mb 69f 64f
3:30 10 13 mph 1012.4mb 69f 64f
3:24 10 13 mph 1012.5mb 69f 64f
3:18 10 11 mph 1012.6mb 69f 64f
3:12 10 13 mph 1012.7mb 69f 64f
3:06 11 13 mph 1012.8mb 69f 64f
3:00 10 13 mph 1012.9mb 69f 64f
2:54 10 14 mph 1013.1mb 69f 64f
2:48 11 13 mph 1013.2mb 69f 64f
2:42 11 13 mph 1013.2mb 69f 64f
2:36 10 11 mph 1013.3mb 69f 64f
2:30 10 13 mph 1013.3mb 69f 64f
2:24 11 13 mph 1013.2mb 69f 64f
2:18 10 11 mph 1013.4mb 69f 64f
2:12 9 10 mph 1013.5mb 69f 64f
2:06 8 9 mph 1013.7mb 69f 64f
2:00 8 9 mph 1013.8mb 68f 64f
1:54 6 7 mph 1013.9mb 68f 64f
1:48 6 7 mph 1013.9mb 68f 64f
1:42 5 9 mph 1013.9mb 68f 64f
1:36 8 9 mph 1013.8mb 68f 64f
1:30 6 8 mph 1013.8mb 68f 64f
1:24 8 9 mph 1013.8mb 68f 64f
1:18 6 9 mph 1013.8mb 68f 64f
1:12 8 9 mph 1013.9mb 68f 64f
1:06 6 10 mph 1013.8mb 68f 64f
1:00 8 9 mph 1013.8mb 68f 64f
12:54 7 10 mph 1013.9mb 68f 64f
12:48 7 10 mph 1014mb 67f 64f
12:42 8 10 mph 1014.2mb 67f 64f
12:36 8 9 mph 1014.3mb 67f 64f
12:30 7 8 mph 1014.4mb 67f 64f
12:24 7 8 mph 1014.5mb 67f 64f
12:18 7
mph
1014.5mb 67f 64f
12:12 6 7 mph 1014.6mb 66f 64f
12:06 6
mph
1014.8mb 66f 65f
12:00 6 7 mph 1014.9mb 66f 64f
11:54 6 7 mph 1015.1mb 66f 64f
11:48 5 7 mph 1015.2mb 66f 64f
11:42 5 7 mph 1015.3mb 66f 64f
11:36 6 7 mph 1015.2mb 66f 64f
11:30 6
mph
1015.3mb 66f 64f
11:24 6 7 mph 1015.3mb 66f 64f
11:18 6 7 mph 1015.2mb 66f 64f
11:12 6 7 mph 1015.3mb 67f 64f
11:06 6 7 mph 1015.4mb 66f 64f
11:00 7 8 mph 1015.5mb 67f 64f
10:54 6 7 mph 1015.5mb 67f 64f
10:48 6 7 mph 1015.5mb 67f 64f
10:42 6 7 mph 1015.5mb 67f 64f
10:36 7 8 mph 1015.5mb 67f 64f
10:30 6 7 mph 1015.5mb 67f 64f
10:24 5 6 mph 1015.6mb 67f 64f
10:18 6
mph
1015.6mb 66f 64f
10:12 5 6 mph 1015.5mb 66f 64f
10:06 5 6 mph 1015.5mb 65f 64f
10:00 6 8 mph 1015.6mb 64f 64f
9:54 5 6 mph 1015.5mb 64f 64f
9:48 3 6 mph 1015.6mb 64f 63f
9:42 3 5 mph 1015.6mb 64f 63f
9:36 5 6 mph 1015.5mb 64f 63f
9:30 2 3 mph 1015.5mb 64f 63f
9:24 5 6 mph 1015.4mb 63f 63f
9:18 6
mph
1015.4mb 62f 63f
9:12 6
mph
1015.5mb 62f 63f
9:06 6 7 mph 1015.6mb 62f 63f
9:00 6 7 mph 1015.6mb 62f 63f
8:54 5 6 mph 1015.6mb 61f 63f
8:48 5 6 mph 1015.6mb 61f 63f
8:42 6 8 mph 1015.6mb 61f 63f
8:36 7 9 mph 1015.5mb 62f 63f
8:30 9 10 mph 1015.4mb 62f 63f
8:24 6 7 mph 1015.3mb 62f 63f
8:18 6
mph
1015.1mb 62f 63f
8:12 5 7 mph 1015mb 62f 63f
8:06 6 8 mph 1015.1mb 62f 63f
8:00 6 8 mph 1015mb 62f 63f
7:54 5 7 mph 1014.9mb 62f 63f
7:48 7 9 mph 1014.9mb 62f 63f
7:42 6 7 mph 1014.9mb 62f 63f
7:36 5 7 mph 1014.8mb 63f 63f
7:30 5 6 mph 1014.8mb 63f 63f
7:24 6 10 mph 1014.7mb 64f 63f
7:18 8 9 mph 1014.6mb 64f 63f
7:12 6 8 mph 1014.5mb 64f 63f
7:06 5 7 mph 1014.5mb 64f 63f
7:00 5 7 mph 1014.5mb 64f 63f
6:54 5 6 mph 1014.6mb 64f 63f
6:48 2 3 mph 1014.6mb 64f 63f
6:42 2 3 mph 1014.6mb 65f 62f
6:36 2 3 mph 1014.6mb 65f 62f
6:30 1 3 mph 1014.6mb 65f 62f
6:24 3 5 mph 1014.8mb 65f 62f
6:18 5 6 mph 1014.8mb 65f 63f
6:12 5 6 mph 1014.8mb 65f 63f
6:06 5 7 mph 1014.9mb 66f 63f
6:00 6 7 mph 1014.8mb 66f 63f
5:54 6 7 mph 1014.8mb 66f 63f
5:48 6 7 mph 1014.6mb 66f 63f
5:42 6 7 mph 1014.5mb 66f 63f
5:36 6 7 mph 1014.4mb 67f 63f
5:30 5 7 mph 1014.4mb 67f 63f
5:24 6 7 mph 1014.4mb 67f 63f
5:18 6
mph
1014.3mb 67f 63f
5:12 6 8 mph 1014.3mb 67f 63f
5:06 8 9 mph 1014.3mb 67f 63f
5:00 6 8 mph 1014.2mb 68f 63f
4:54 5 6 mph 1014.2mb 68f 63f
4:48 5 9 mph 1014.2mb 68f 63f
4:42 6 7 mph 1014.2mb 68f 63f
4:36 7
mph
1014.1mb 69f 63f
4:30 6 7 mph 1014.1mb 69f 63f
4:24 5 6 mph 1014.1mb 69f 63f
4:18 5 7 mph 1014.1mb 69f 63f
4:12 5 7 mph 1014.1mb 69f 63f
4:06 6 8 mph 1014.2mb 69f 63f
4:00 7 8 mph 1014.2mb 69f 63f
3:54 8 9 mph 1014.2mb 69f 63f
3:48 8 9 mph 1014.2mb 69f 63f
3:42 7 9 mph 1014.2mb 69f 64f
3:36 6 8 mph 1014.1mb 69f 64f
3:30 6 8 mph 1014.1mb 69f 64f
3:24 7 8 mph 1014.1mb 69f 64f
3:18 6 8 mph 1014.1mb 69f 64f
3:12 7 13 mph 1014.2mb 69f 64f
3:06 8 10 mph 1014.2mb 69f 64f
3:00 7 9 mph 1014.2mb 69f 64f
2:54 8 10 mph 1014.2mb 69f 64f
2:48 8 9 mph 1014.2mb 69f 64f
2:42 7 8 mph 1014.2mb 69f 64f
2:36 8 10 mph 1014.2mb 69f 64f
2:30 7 10 mph - 69f 64f
2:24 9 10 mph - 69f 64f
2:18 7 10 mph 1014.2mb 69f 64f
2:12 8 9 mph 1014.1mb 69f 64f
2:06 8 9 mph 1014mb 69f 64f
2:00 6 7 mph 1014mb 69f 64f
1:54 6 8 mph 1014mb 69f 64f
1:48 5 6 mph 1014mb 69f 64f
1:42 2 6 mph 1013.9mb 69f 64f
1:36 5 6 mph 1013.9mb 69f 64f
1:30 3 5 mph 1014mb 69f 64f
1:24  -  2 mph 1014.1mb 68f 64f
1:18 2 5 mph 1014.1mb 68f 64f
1:12 2 5 mph 1014.2mb 68f 64f
1:06 3 7 mph 1014.3mb 68f 64f
1:00 6 8 mph 1014.2mb 68f 64f
12:54 6 8 mph 1014.3mb 68f 64f
12:48 7 8 mph 1014.4mb 68f 64f
12:42 7 8 mph 1014.3mb 68f 64f
12:36 7 8 mph 1014.3mb 67f 64f
12:30 6 7 mph 1014.3mb 67f 64f
12:24 6 7 mph 1014.3mb 67f 64f
12:18 6 7 mph 1014.2mb 67f 64f
12:12 3 6 mph 1014.2mb 66f 64f
12:06 6 7 mph 1014.3mb 65f 64f
12:00 5 6 mph 1014.3mb 65f 64f
jue 07/02 11:54 5 7 mph 1014.3mb 65f 64f
11:48 6 8 mph - - 64f
11:42 6 9 mph - - 64f
11:36 8 10 mph - - 64f
11:30 8 10 mph 1014.4mb 64f 64f
11:24 8 10 mph 1014.3mb 63f 64f
11:18 5 9 mph 1014.3mb 63f 64f
11:12 7 8 mph 1014.2mb 63f 64f
11:06 5 6 mph 1014.1mb 62f 64f
11:00 6 7 mph 1014mb 62f 64f
10:54 6 8 mph 1014.1mb 62f 65f
10:48 6 7 mph 1014.1mb 61f 65f
10:42 6 7 mph 1014.3mb 61f 64f
10:36 8 9 mph 1014.4mb 61f 64f
10:30 8 9 mph 1014.5mb 61f 64f
10:24 8 10 mph 1014.5mb 61f 64f
10:18 9 10 mph 1014.5mb 62f 64f
10:12 8 9 mph 1014.4mb 62f 64f
10:06 8 10 mph 1014.3mb 62f 64f
10:00 9
mph
1014.2mb 62f 65f
9:54 8 9 mph 1014.2mb 62f 64f
9:48 9 11 mph 1014.1mb 62f 64f
9:42 9 10 mph 1014.1mb 62f 65f
9:36 10
mph
1014.1mb 62f 65f
9:30 8 9 mph 1013.9mb 63f 65f
9:24 5
mph
1013.7mb 63f 65f
9:18 3 5 mph 1013.6mb 63f 65f
9:12 3 5 mph 1013.5mb 63f 65f
9:06 5 6 mph 1013.5mb 63f 65f
9:00 6 7 mph 1013.5mb 63f 65f
8:54 7 8 mph 1013.5mb 63f 65f
8:48 7 9 mph 1013.4mb 63f 65f
8:42 8 9 mph 1013.4mb 63f 65f
8:36 8 10 mph 1013.5mb 63f 65f
8:30 9 10 mph 1013.5mb 63f 65f
8:24 10 11 mph 1013.5mb 63f 65f
8:18 10 11 mph 1013.5mb 63f 65f
8:12 10 13 mph 1013.4mb 63f 65f
8:06 10 13 mph 1013.3mb 64f 65f
8:00 11 13 mph 1013.3mb 64f 65f
7:54 11 14 mph 1013.3mb 64f 65f
7:48 13
mph
1013.3mb 64f 65f
7:42 11 13 mph 1013.3mb 64f 65f
7:36 11 13 mph 1013.3mb 64f 65f
7:30 11 13 mph 1013.3mb 64f 65f
7:24 11 13 mph 1013.3mb 64f 66f
7:18 11 13 mph 1013.3mb 64f 66f
7:12 10 13 mph 1013.4mb 64f 65f
7:06 13 14 mph 1013.5mb 64f 66f
7:00 11 13 mph 1013.4mb 64f 66f
6:54 10 13 mph 1013.4mb 65f 66f
6:48 11 14 mph 1013.3mb 65f 66f
6:42 11 14 mph 1013.2mb 65f 66f
6:36 13 15 mph 1013.2mb 65f 66f
6:30 14 15 mph 1013.1mb 65f 66f
6:24 14 16 mph 1013.1mb 65f 66f
6:18 14 15 mph 1013.1mb 66f 66f
6:12 13 15 mph 1013.2mb 66f 66f
6:06 13 14 mph 1013.2mb 67f 66f
6:00 15 16 mph 1013.3mb 67f 66f
5:54 14 16 mph 1013.4mb 69f 66f
5:48 15 16 mph 1013.4mb 69f 66f
5:42 15 17 mph 1013.4mb 70f 66f
5:36 15 17 mph 1013.5mb 70f 66f
5:30 15 17 mph 1013.6mb 70f 66f
5:24 15 17 mph 1013.7mb 70f 66f
5:18 16 18 mph 1013.7mb 70f 66f
5:12 16 18 mph 1013.8mb 71f 66f
5:06 17 20 mph 1013.8mb 71f 66f
5:00 18 20 mph 1013.8mb 71f 66f
4:54 18 21 mph 1013.8mb 71f 66f
4:48 16 18 mph 1013.8mb 71f 66f
4:42 16 17 mph 1013.8mb 71f 66f
4:36 15 16 mph 1013.9mb 71f 66f
4:30 15 16 mph 1014mb 71f 66f
4:24 15 16 mph 1014mb 71f 66f
4:18 16 17 mph 1014.2mb 71f 66f
4:12 14 16 mph 1014.2mb 71f 66f
4:06 14 16 mph 1014.2mb 71f 66f
4:00 13 15 mph 1014.2mb 71f 67f
3:54 14 15 mph 1014.3mb 71f 66f
3:48 14
mph
1014.5mb 71f 66f
3:42 13 14 mph 1014.5mb 71f 67f
3:36 11 13 mph 1014.5mb 71f 66f
3:30 11 13 mph 1014.7mb 71f 66f
3:24 10 11 mph 1014.7mb 71f 67f
3:18 9 10 mph 1014.7mb 71f 67f
3:12 9
mph
1014.8mb 71f 67f
3:06 9 10 mph 1014.8mb 71f 67f
3:00 9 11 mph 1014.9mb 71f 66f
2:54 11 13 mph 1015mb 71f 66f
2:48 10 13 mph 1015.1mb 71f 66f
2:42 11 13 mph 1015.3mb 70f 66f
2:36 11 13 mph 1015.3mb 70f 66f
2:30 11 13 mph 1015.3mb 70f 66f
2:24 11 14 mph 1015.5mb 70f 66f
2:18 11 13 mph 1015.6mb 70f 66f
2:12 11 14 mph 1015.5mb 70f 67f
2:06 11 14 mph 1015.5mb 70f 67f
2:00 13 14 mph 1015.7mb 70f 66f
1:54 11 14 mph 1015.7mb 70f 67f
1:48 11 13 mph 1015.8mb 69f 67f
1:42 11 13 mph 1015.8mb 69f 67f
1:36 10 11 mph 1015.7mb 69f 67f
1:30 10
mph
1015.6mb 69f 66f
1:24 9 10 mph 1015.6mb 69f 66f
1:18 8 9 mph 1015.6mb 69f 67f
1:12 7 8 mph 1015.7mb 68f 67f
1:06 7 8 mph 1015.7mb 68f 67f
1:00 6 7 mph 1015.7mb 67f 67f
12:54 6 7 mph 1015.6mb 67f 67f
12:48 6
mph
1015.8mb 67f 67f
12:42 5 6 mph 1015.9mb 67f 67f
12:36 6 7 mph 1016mb 66f 66f
12:30 6 7 mph 1016mb 66f 66f
12:24 6 7 mph 1016mb 66f 66f
12:18 6 7 mph 1016mb 66f 66f
12:12 6 7 mph 1016.1mb 66f 66f
12:06 6 7 mph 1016.2mb 66f 66f
12:00 7 8 mph 1016.2mb 67f 66f
11:54 7 8 mph 1016.2mb 67f 66f
11:48 7
mph
1016.2mb 67f 66f
11:42 6 7 mph 1016.2mb 67f 66f
11:36 6
mph
1016.1mb 68f 66f
11:30 6
mph
1016.2mb 68f 66f
11:24 6
mph
1016.1mb 68f 66f
11:18 6
mph
1016.1mb 68f 66f
11:12 5 7 mph 1016.1mb 68f 66f
11:06 5 6 mph 1016.1mb 68f 66f
11:00 6
mph
1016.2mb 68f 66f
10:54 6 7 mph 1016.2mb 68f 66f
10:48 5 7 mph 1016.1mb 68f 66f
10:42 6 7 mph 1016.1mb 68f 66f
10:36 5 6 mph 1016.1mb 68f 66f
10:30 5 6 mph 1016.1mb 68f 66f
10:24 6 7 mph 1016.1mb 68f 66f
10:18 6 7 mph 1016mb 67f 65f
10:12 7 8 mph 1016mb 67f 66f
10:06 7 8 mph 1015.9mb 67f 65f
10:00 7
mph
1015.9mb 67f 65f
9:54 6 7 mph 1016mb 66f 66f
9:48 6 7 mph 1016mb 66f 66f
9:42 6 7 mph 1016mb 65f 66f
9:36 6 7 mph 1016mb 65f 65f
9:30  -  mph 1016mb 65f 66f
9:24  -  mph - - 66f
9:18  -  mph - - 66f
9:12  -  mph 1015.9mb - 66f
9:06  -  mph 1015.9mb 64f 66f
9:00  -  mph 1016mb 64f -
8:54  -  mph - 64f 66f
8:48  -  mph 1016.1mb 64f 66f
8:42  -  mph 1016.1mb 64f 66f
8:36  -  mph 1016.1mb 64f 66f
8:30  -  mph 1016mb 64f 66f
8:24  -  mph 1016mb 64f 66f
8:18 6 7 mph 1016.1mb 65f 65f
8:12 6
mph
1016mb 65f 66f
8:06 6
mph
1016mb 65f 66f
8:00 6 7 mph 1015.9mb 65f 66f
7:54 6
mph
1015.8mb 65f 66f
7:48 5 6 mph 1015.8mb 64f 66f
7:42 5 6 mph 1015.6mb 64f 66f
7:36 5 6 mph 1015.5mb 64f 66f
7:30 5 6 mph 1015.4mb 64f 66f
7:24 6 7 mph 1015.3mb 64f 66f
7:18 6 7 mph 1015.3mb 64f 66f
7:12 7 9 mph 1015.2mb 65f 66f
7:06 8 9 mph 1015.1mb 64f 66f
7:00 8 9 mph 1015.2mb 65f 66f
6:54 8
mph
1015.2mb 65f 66f
6:48 8 9 mph 1015.2mb 65f 66f
6:42 6 7 mph 1015.2mb 65f 66f
6:36 6 7 mph 1015.2mb 65f 65f
6:30 6 8 mph 1015.1mb 65f 65f
6:24 7 8 mph 1015.1mb 66f 65f
6:18 7 8 mph 1015mb 66f 66f
6:12 7
mph
1015mb 66f 66f
6:06 7
mph
1014.9mb 67f 66f
6:00 7
mph
1014.8mb 67f 66f
5:54 6 7 mph 1014.7mb 67f 66f
5:48 7 8 mph 1014.7mb 68f 67f
5:42 6
mph
1014.6mb 68f 67f
5:36 5
mph
1014.6mb 68f 67f
5:30 3
mph
1014.5mb 68f 67f
5:24 2
mph
1014.6mb 68f 67f
5:18 2 3 mph 1014.6mb 68f 67f
5:12 2 3 mph 1014.5mb 68f 67f
5:06 2 5 mph 1014.4mb 68f 67f
5:00 3
mph
1014.3mb 68f 67f
4:54 2 6 mph 1014.3mb 69f 67f
4:48 5 6 mph 1014.1mb 69f 67f
4:42 6
mph
1014mb 69f 67f
4:36 3
mph
1014.2mb 69f 66f
4:30 2
mph
1014.3mb 69f 66f
4:24 1
mph
1014mb 69f 66f
4:18 2 3 mph 1014.1mb 69f 66f
4:12 2 3 mph 1014.1mb 69f 66f
4:06 2 3 mph 1014.1mb 69f 66f
4:00 2
mph
1014.1mb 69f 66f
3:54 1 2 mph 1014.1mb 69f 66f
3:48 2 3 mph 1014mb 69f 66f
3:42 2 3 mph 1014mb 69f 66f
3:36 2 3 mph 1013.9mb 69f 66f
3:30 3 5 mph 1014mb 69f 66f
3:24 6 8 mph 1013.9mb 69f 66f
3:18 2
mph
1014.2mb 69f 66f
3:12  -  3 mph 1014.3mb 69f 66f
3:06 5 6 mph 1014.3mb 69f 65f
3:00 3 5 mph 1014.4mb 69f 66f
2:54 1 2 mph 1014.3mb 69f 66f
2:48 2 3 mph 1014.3mb 69f 66f
2:42 2 5 mph 1014.2mb 69f 66f
2:36 3 5 mph 1014.2mb 69f 66f
2:30 5
mph
1014.4mb 69f 66f
2:24 3
mph
1014.4mb 69f 66f
2:18 2
mph
1014.5mb 69f 66f
2:12 2
mph
1014.5mb 69f 66f
2:06 1 3 mph 1014.5mb 69f 66f
2:00 3 5 mph 1014.4mb 69f 66f
1:54 3 5 mph 1014.4mb 69f 66f
1:48 3 5 mph 1014.5mb 69f 65f
1:42 2 3 mph 1014.5mb 69f 66f
1:36 2 3 mph 1014.4mb 69f 65f
1:30 2 3 mph 1014.3mb 69f 65f
1:24 3 5 mph 1014.5mb 69f 65f
1:18 3 5 mph 1014.4mb 69f 66f
1:12 1 2 mph 1014.5mb 68f 66f
1:06 1 3 mph 1014.5mb 68f 66f
1:00 2 3 mph 1014.4mb 68f 66f
12:54 1 2 mph 1014.5mb 68f 66f
12:48 2 3 mph 1014.5mb 68f 66f
12:42 3 5 mph 1014.6mb 67f 66f
12:36 2 3 mph 1014.6mb 67f 66f
12:30 2
mph
1014.4mb 67f 66f
12:24 2
mph
1014.5mb 66f 66f
12:18 1 2 mph 1014.3mb 65f 66f
12:12  -  1 mph 1014.3mb 65f 66f
12:06  -  1 mph 1014.4mb 65f 65f
12:00  -  2 mph 1014.3mb 65f 65f
mié 07/01 11:54  -  5 mph 1014.2mb 65f 65f
11:48 5
mph
1014.2mb 65f 65f
11:42 5 6 mph 1014.2mb 65f 65f
11:36 6
mph
1014.1mb 64f 65f
11:30 6
mph
1014.3mb 64f 65f
11:24 6
mph
1014.3mb 64f 65f
11:18 5 6 mph 1014.4mb 64f 65f
11:12 5 6 mph 1014.6mb 64f 65f
11:06 5 6 mph 1014.6mb 64f 65f
11:00 5 6 mph 1014.6mb 63f 65f
10:54 5 6 mph 1014.6mb 63f 65f
10:48 5 6 mph 1014.6mb 64f 65f
10:42 6
mph
1014.6mb 64f 65f
10:36 5 6 mph 1014.6mb 64f 65f
10:30 5 7 mph 1014.5mb 64f 65f
10:24 5 6 mph 1014.5mb 64f 66f
10:18 5 6 mph 1014.4mb 64f 65f
10:12 3 5 mph 1014.3mb 64f 65f
10:06 5 6 mph 1014.2mb 64f 65f
10:00 3 5 mph 1014.2mb 64f 65f
9:54 3
mph
1014.2mb 64f 65f
9:48 2 3 mph 1014.3mb 64f 65f
9:42 1 3 mph 1014.3mb 64f 65f
9:36 2 3 mph 1014.1mb 64f 65f
9:30 3
mph
1014mb 64f 65f
9:24 2 5 mph 1014mb 64f 65f
9:18 3 6 mph 1013.9mb 64f 65f
9:12 5 6 mph 1013.9mb 64f 65f
9:06 6 7 mph 1013.8mb 64f 65f
9:00 5 7 mph 1013.8mb 64f 65f
8:54 6 7 mph 1013.8mb 65f 65f
8:48 6 7 mph 1013.9mb 65f 65f
8:42 7 8 mph 1014mb 65f 65f
8:36 7
mph
1013.9mb 65f 65f
8:30 6 7 mph 1014mb 66f 65f
8:24 6 7 mph 1014mb 66f 65f
8:18 7 9 mph 1014mb 66f 65f
8:12 9 10 mph 1013.8mb 66f 65f
8:06 6 8 mph 1013.8mb 66f 65f
8:00 6 7 mph 1013.9mb 66f 66f
7:54 6 7 mph 1013.8mb 66f 66f
7:48 6 7 mph 1013.9mb 66f 66f
7:42 6 7 mph 1013.7mb 66f 66f
7:36 6 8 mph 1013.7mb 66f 66f
7:30 8 9 mph 1013.4mb 67f 66f
7:24 7 8 mph 1013.3mb 67f 66f
7:18 7 8 mph 1013.2mb 67f 66f
7:12 7
mph
1013.1mb 67f 66f
7:06 7 8 mph 1013mb 67f 66f
7:00 8 9 mph 1012.9mb 67f 66f
6:54 7 9 mph 1012.8mb 68f 66f
6:48 8 9 mph 1012.8mb 68f 66f
6:42 7
mph
1012.7mb 68f 66f
6:36 6 7 mph 1012.6mb 68f 66f
6:30 5 6 mph 1012.7mb 68f 66f
6:24 5 7 mph 1012.7mb 68f 66f
6:18 5 6 mph 1012.6mb 68f 66f
6:12 5 6 mph 1012.5mb 68f 66f
6:06 6 9 mph 1012.3mb 68f 66f
6:00 7 10 mph 1012.2mb 69f 66f
5:54 8 9 mph 1012.1mb 69f 66f
5:48 6 8 mph 1012.2mb 69f 67f
5:42 8 9 mph 1012.1mb 69f 67f
5:36 7 9 mph 1012.2mb 70f 67f
5:30 7 8 mph 1012.4mb 69f 67f
5:24 8 10 mph 1012.3mb 69f 67f
5:18 9 10 mph 1012mb 69f 67f
5:12 8 9 mph 1012.2mb 70f 67f
5:06 8
mph
1012.3mb 70f 67f
5:00 9
mph
1012.3mb 70f 67f
4:54 6 7 mph 1012.4mb 70f 67f
4:48 3 5 mph 1012.5mb 70f 67f
4:42 6 8 mph 1012.5mb 70f 67f
4:36 8 9 mph 1012.4mb 70f 67f
4:30 7 9 mph 1012.3mb 70f 67f
4:24 7 9 mph 1012.3mb 70f 67f
4:18 7 8 mph 1012.3mb 70f 67f
4:12 7 8 mph 1012.4mb 70f 67f
4:06 7 8 mph 1012.5mb 70f 67f
4:00 6 7 mph 1012.6mb 70f 67f
3:54 7 9 mph 1012.5mb 70f 67f
3:48 6 8 mph 1012.5mb 70f 68f
3:42 8 9 mph 1012.7mb 70f 67f
3:36 9 10 mph 1012.7mb 70f 67f
3:30 9 10 mph 1013mb 70f 67f
3:24 8 10 mph 1013.1mb 70f 67f
3:18 9 10 mph 1013.2mb 70f 66f
3:12 9 11 mph 1013.1mb 70f 66f
3:06 9 10 mph 1013mb 70f 66f
3:00 9 10 mph 1013.2mb 70f 66f
2:54 10 11 mph 1013.3mb 70f 66f
2:48 11 14 mph 1013.2mb 70f 66f
2:42 11 14 mph 1013.2mb 70f 66f
2:36 14
mph
1013mb 70f 66f
2:30 10 13 mph 1013.2mb 70f 66f
2:24 10 13 mph 1013.2mb 70f 66f
2:18 11 13 mph 1012.9mb 70f 66f
2:12 9 11 mph 1013mb 70f 66f
2:06 8 11 mph 1012.9mb 70f 66f
2:00 10 11 mph 1012.6mb 70f 66f
1:54 8 9 mph 1012.8mb 70f 66f
1:48 7 8 mph 1013.1mb 70f 66f
1:42 8 9 mph 1012.9mb 70f 66f
1:36 9 10 mph 1012.5mb 70f 66f
1:30 9 10 mph 1012.4mb 70f 66f
1:24 9 10 mph 1012.5mb 70f 66f
1:18 8 9 mph 1012.8mb 70f 66f
1:12 8 9 mph 1012.7mb 70f 66f
1:06 9
mph
1012.6mb 70f 66f
1:00 9 10 mph 1012.7mb 70f 66f
12:54 9 10 mph 1012.7mb 69f 66f
12:48 9 10 mph 1012.8mb 69f 66f
12:42 9 10 mph 1012.8mb 69f 67f
12:36 9
mph
1012.9mb 69f 67f
12:30 9
mph
1012.9mb 69f 67f
12:24 9
mph
1013mb 69f 67f
12:18 8
mph
1013.2mb 69f 67f
12:12 7 8 mph 1013.5mb 69f 67f
12:06 7
mph
1013.6mb 69f 67f
12:00 6
mph
1013.8mb 69f 66f
11:54 6 7 mph 1013.8mb 69f 66f
11:48 7 8 mph 1013.7mb 69f 66f
11:42 8 9 mph 1013.8mb 69f 67f
11:36 7 8 mph 1013.8mb 69f 67f
11:30 7 8 mph 1014mb 69f 67f
11:24 8
mph
1013.9mb 69f 67f
11:18 7
mph
1014mb 69f 66f
11:12 6 7 mph 1014mb 69f 66f
11:06 5 7 mph 1014.2mb 69f 66f
11:00 6 7 mph 1014.2mb 69f 66f
10:54 6 7 mph 1014.1mb 69f 66f
10:48 5 7 mph 1014mb 69f 66f
10:42 7 9 mph 1013.8mb 69f 66f
10:36 7 9 mph 1013.9mb 69f 66f
10:30 7 8 mph 1013.9mb 69f 66f
10:24 7
mph
1014mb 69f 66f
10:18 5 6 mph 1014.3mb 69f 66f
10:12 5 6 mph 1014.2mb 69f 67f
10:06 5 6 mph 1014mb 69f 66f
10:00 5
mph
1014mb 69f 66f
9:54 3 6 mph 1014mb 69f 66f
9:48 5 6 mph 1014mb 69f 66f
9:42 6
mph
1013.9mb 69f 67f
9:36 5
mph
1013.8mb 69f 67f
9:30 2 5 mph 1013.7mb 69f 67f
9:24 3 5 mph 1013.7mb 69f 67f
9:18 3 6 mph 1013.6mb 69f 66f
9:12 3 6 mph 1013.5mb 69f 66f
9:06 5 6 mph 1013.4mb 69f 66f
9:00 5 6 mph 1013.4mb 69f 66f
8:54 2 3 mph 1013.4mb 69f 66f
8:48 3 5 mph 1013.5mb 69f 66f
8:42 3 6 mph 1013.3mb 69f 66f
8:36 6
mph
1013.1mb 68f 66f
8:30 6 7 mph 1013.1mb 68f 66f
8:24 7 10 mph 1012.9mb 68f 66f
8:18 9 10 mph 1012.8mb 68f 65f
8:12 9 10 mph 1012.8mb 68f 66f
8:06 10 13 mph 1012.7mb 68f 65f
8:00 11 14 mph 1012.4mb 68f 66f
7:54 13 14 mph 1012.3mb 68f 66f
7:48 13
mph
1012.4mb 68f 66f
7:42 11
mph
1012.4mb 68f 66f
7:36 10
mph
1012.5mb 68f 66f
7:30 8 9 mph 1012.6mb 68f 66f
7:24 6 7 mph 1012.8mb 68f 67f
7:18 6 7 mph 1012.7mb 68f 67f
7:12 6
mph
1012.7mb 68f 67f
7:06 5 6 mph 1012.7mb 68f 67f
7:00 6
mph
1012.9mb 68f 67f
6:54 5 6 mph 1012.6mb 68f 67f
6:48 3 7 mph 1012.6mb 68f 67f
6:42 6 7 mph 1012.4mb 68f 67f
6:36 5 6 mph 1012.3mb 68f 67f
6:30 6 7 mph 1012.3mb 68f 67f
6:24 7 8 mph 1012.4mb 68f 67f
6:18 7 8 mph 1012.4mb 68f 68f
6:12 6 7 mph 1012.6mb 68f 68f
6:06 5
mph
1012.5mb 68f 68f
6:00 5
mph
1012.4mb 69f 68f
5:54 5
mph
1012.5mb 69f 68f
5:48 3 5 mph 1012.3mb 69f 68f
5:42 2 3 mph 1012.5mb 68f 68f
5:36 3 5 mph 1012.3mb 68f 67f
5:30 2 3 mph 1012.3mb 69f 68f
5:24 2 5 mph 1012.3mb 69f 68f
5:18 3
mph
1012.2mb 69f 68f
5:12  -  1 mph 1012.4mb 69f 67f
5:06  -  3 mph 1012.3mb 69f 67f
5:00  -  2 mph 1012.4mb 69f 67f
4:54  -  2 mph 1012.6mb 69f 67f
4:48 2
mph
1012.4mb 69f 67f